sensor_id;sensor_type;location;lat;lon;timestamp;P1;durP1;ratioP1;P2;durP2;ratioP2
51824;SDS011;37879;52.986;6.282;2023-07-20T00:01:45;3.30;;;2.58;;
51824;SDS011;37879;52.986;6.282;2023-07-20T00:04:11;4.10;;;3.10;;
51824;SDS011;37879;52.986;6.282;2023-07-20T00:06:37;3.67;;;2.45;;
51824;SDS011;37879;52.986;6.282;2023-07-20T00:09:06;3.20;;;2.88;;
51824;SDS011;37879;52.986;6.282;2023-07-20T00:11:32;3.80;;;2.55;;
51824;SDS011;37879;52.986;6.282;2023-07-20T00:14:01;3.65;;;2.78;;
51824;SDS011;37879;52.986;6.282;2023-07-20T00:16:27;4.40;;;3.10;;
51824;SDS011;37879;52.986;6.282;2023-07-20T00:18:53;3.92;;;3.00;;
51824;SDS011;37879;52.986;6.282;2023-07-20T00:21:19;4.57;;;3.28;;
51824;SDS011;37879;52.986;6.282;2023-07-20T00:23:45;3.75;;;2.70;;
51824;SDS011;37879;52.986;6.282;2023-07-20T00:26:11;3.80;;;2.60;;
51824;SDS011;37879;52.986;6.282;2023-07-20T00:28:37;3.95;;;3.55;;
51824;SDS011;37879;52.986;6.282;2023-07-20T00:31:04;3.53;;;2.75;;
51824;SDS011;37879;52.986;6.282;2023-07-20T00:33:30;3.40;;;2.63;;
51824;SDS011;37879;52.986;6.282;2023-07-20T00:35:56;5.97;;;2.83;;
51824;SDS011;37879;52.986;6.282;2023-07-20T00:38:22;3.83;;;3.08;;
51824;SDS011;37879;52.986;6.282;2023-07-20T00:40:48;3.50;;;2.65;;
51824;SDS011;37879;52.986;6.282;2023-07-20T00:43:14;2.85;;;2.55;;
51824;SDS011;37879;52.986;6.282;2023-07-20T00:45:40;3.97;;;2.78;;
51824;SDS011;37879;52.986;6.282;2023-07-20T00:48:07;3.35;;;3.05;;
51824;SDS011;37879;52.986;6.282;2023-07-20T00:50:33;3.95;;;3.08;;
51824;SDS011;37879;52.986;6.282;2023-07-20T00:53:00;3.38;;;2.97;;
51824;SDS011;37879;52.986;6.282;2023-07-20T00:55:26;3.70;;;2.58;;
51824;SDS011;37879;52.986;6.282;2023-07-20T00:57:52;3.50;;;2.70;;
51824;SDS011;37879;52.986;6.282;2023-07-20T01:00:18;3.65;;;2.60;;
51824;SDS011;37879;52.986;6.282;2023-07-20T01:02:45;4.10;;;3.05;;
51824;SDS011;37879;52.986;6.282;2023-07-20T01:05:12;3.70;;;2.60;;
51824;SDS011;37879;52.986;6.282;2023-07-20T01:10:24;4.45;;;2.72;;
51824;SDS011;37879;52.986;6.282;2023-07-20T01:12:51;3.42;;;2.65;;
51824;SDS011;37879;52.986;6.282;2023-07-20T01:15:18;4.28;;;2.90;;
51824;SDS011;37879;52.986;6.282;2023-07-20T01:17:44;3.30;;;2.58;;
51824;SDS011;37879;52.986;6.282;2023-07-20T01:20:12;3.65;;;2.70;;
51824;SDS011;37879;52.986;6.282;2023-07-20T01:32:58;4.70;;;2.60;;
51824;SDS011;37879;52.986;6.282;2023-07-20T01:35:27;3.35;;;2.60;;
51824;SDS011;37879;52.986;6.282;2023-07-20T01:37:54;4.63;;;2.67;;
51824;SDS011;37879;52.986;6.282;2023-07-20T01:40:20;3.78;;;2.85;;
51824;SDS011;37879;52.986;6.282;2023-07-20T01:42:48;4.03;;;2.55;;
51824;SDS011;37879;52.986;6.282;2023-07-20T01:45:14;4.75;;;2.92;;
51824;SDS011;37879;52.986;6.282;2023-07-20T01:47:41;3.85;;;2.30;;
51824;SDS011;37879;52.986;6.282;2023-07-20T01:50:07;2.92;;;2.08;;
51824;SDS011;37879;52.986;6.282;2023-07-20T01:52:34;3.30;;;2.63;;
51824;SDS011;37879;52.986;6.282;2023-07-20T01:55:00;3.78;;;2.90;;
51824;SDS011;37879;52.986;6.282;2023-07-20T01:57:26;3.75;;;3.15;;
51824;SDS011;37879;52.986;6.282;2023-07-20T01:59:52;4.28;;;3.20;;
51824;SDS011;37879;52.986;6.282;2023-07-20T02:02:18;3.10;;;2.20;;
51824;SDS011;37879;52.986;6.282;2023-07-20T02:04:45;3.97;;;2.92;;
51824;SDS011;37879;52.986;6.282;2023-07-20T02:07:11;3.40;;;2.63;;
51824;SDS011;37879;52.986;6.282;2023-07-20T02:09:37;3.65;;;2.90;;
51824;SDS011;37879;52.986;6.282;2023-07-20T02:12:03;3.65;;;2.35;;
51824;SDS011;37879;52.986;6.282;2023-07-20T02:14:29;2.58;;;2.00;;
51824;SDS011;37879;52.986;6.282;2023-07-20T02:16:55;3.40;;;2.70;;
51824;SDS011;37879;52.986;6.282;2023-07-20T02:19:24;3.58;;;2.20;;
51824;SDS011;37879;52.986;6.282;2023-07-20T02:21:51;3.05;;;2.53;;
51824;SDS011;37879;52.986;6.282;2023-07-20T02:24:18;3.28;;;2.53;;
51824;SDS011;37879;52.986;6.282;2023-07-20T02:26:44;2.75;;;2.30;;
51824;SDS011;37879;52.986;6.282;2023-07-20T02:29:10;2.78;;;2.05;;
51824;SDS011;37879;52.986;6.282;2023-07-20T02:31:38;3.05;;;2.30;;
51824;SDS011;37879;52.986;6.282;2023-07-20T02:34:05;2.97;;;2.17;;
51824;SDS011;37879;52.986;6.282;2023-07-20T02:36:31;3.70;;;2.40;;
51824;SDS011;37879;52.986;6.282;2023-07-20T02:39:00;2.72;;;2.15;;
51824;SDS011;37879;52.986;6.282;2023-07-20T02:41:33;3.05;;;2.42;;
51824;SDS011;37879;52.986;6.282;2023-07-20T02:43:59;3.08;;;2.30;;
51824;SDS011;37879;52.986;6.282;2023-07-20T02:46:26;2.90;;;2.10;;
51824;SDS011;37879;52.986;6.282;2023-07-20T02:48:55;3.20;;;2.25;;
51824;SDS011;37879;52.986;6.282;2023-07-20T02:51:21;3.53;;;2.58;;
51824;SDS011;37879;52.986;6.282;2023-07-20T02:53:47;3.05;;;2.15;;
51824;SDS011;37879;52.986;6.282;2023-07-20T02:56:13;7.28;;;2.95;;
51824;SDS011;37879;52.986;6.282;2023-07-20T02:58:41;2.42;;;1.98;;
51824;SDS011;37879;52.986;6.282;2023-07-20T03:01:11;3.35;;;1.90;;
51824;SDS011;37879;52.986;6.282;2023-07-20T03:03:37;3.40;;;2.10;;
51824;SDS011;37879;52.986;6.282;2023-07-20T03:06:03;3.60;;;2.50;;
51824;SDS011;37879;52.986;6.282;2023-07-20T03:08:29;3.00;;;2.15;;
51824;SDS011;37879;52.986;6.282;2023-07-20T03:10:55;3.20;;;2.78;;
51824;SDS011;37879;52.986;6.282;2023-07-20T03:13:21;4.20;;;2.70;;
51824;SDS011;37879;52.986;6.282;2023-07-20T03:15:49;4.80;;;2.85;;
51824;SDS011;37879;52.986;6.282;2023-07-20T03:18:15;3.13;;;2.20;;
51824;SDS011;37879;52.986;6.282;2023-07-20T03:20:41;3.58;;;2.83;;
51824;SDS011;37879;52.986;6.282;2023-07-20T03:23:07;2.72;;;2.20;;
51824;SDS011;37879;52.986;6.282;2023-07-20T03:25:33;2.75;;;2.25;;
51824;SDS011;37879;52.986;6.282;2023-07-20T03:28:02;4.45;;;2.63;;
51824;SDS011;37879;52.986;6.282;2023-07-20T03:30:28;3.53;;;2.67;;
51824;SDS011;37879;52.986;6.282;2023-07-20T03:32:54;4.63;;;2.78;;
51824;SDS011;37879;52.986;6.282;2023-07-20T03:35:20;3.40;;;2.85;;
51824;SDS011;37879;52.986;6.282;2023-07-20T03:37:47;4.40;;;2.47;;
51824;SDS011;37879;52.986;6.282;2023-07-20T03:40:13;5.65;;;3.22;;
51824;SDS011;37879;52.986;6.282;2023-07-20T03:42:42;4.25;;;2.40;;
51824;SDS011;37879;52.986;6.282;2023-07-20T03:45:09;3.25;;;2.00;;
51824;SDS011;37879;52.986;6.282;2023-07-20T03:47:35;3.95;;;2.30;;
51824;SDS011;37879;52.986;6.282;2023-07-20T03:50:01;3.17;;;2.80;;
51824;SDS011;37879;52.986;6.282;2023-07-20T03:52:28;2.72;;;2.15;;
51824;SDS011;37879;52.986;6.282;2023-07-20T03:54:54;2.70;;;2.15;;
51824;SDS011;37879;52.986;6.282;2023-07-20T03:57:20;4.22;;;3.05;;
51824;SDS011;37879;52.986;6.282;2023-07-20T03:59:47;3.47;;;2.63;;
51824;SDS011;37879;52.986;6.282;2023-07-20T04:02:14;2.10;;;1.88;;
51824;SDS011;37879;52.986;6.282;2023-07-20T04:04:40;3.40;;;2.78;;
51824;SDS011;37879;52.986;6.282;2023-07-20T04:07:06;4.68;;;2.60;;
51824;SDS011;37879;52.986;6.282;2023-07-20T04:09:32;4.40;;;2.58;;
51824;SDS011;37879;52.986;6.282;2023-07-20T04:11:58;3.50;;;2.70;;
51824;SDS011;37879;52.986;6.282;2023-07-20T04:14:25;4.03;;;2.45;;
51824;SDS011;37879;52.986;6.282;2023-07-20T04:16:51;4.50;;;2.58;;
51824;SDS011;37879;52.986;6.282;2023-07-20T04:19:17;3.30;;;2.55;;
51824;SDS011;37879;52.986;6.282;2023-07-20T04:21:43;4.38;;;2.95;;
51824;SDS011;37879;52.986;6.282;2023-07-20T04:24:09;4.88;;;3.00;;
51824;SDS011;37879;52.986;6.282;2023-07-20T04:26:36;3.30;;;2.88;;
51824;SDS011;37879;52.986;6.282;2023-07-20T04:29:02;3.47;;;2.97;;
51824;SDS011;37879;52.986;6.282;2023-07-20T04:31:29;3.53;;;3.10;;
51824;SDS011;37879;52.986;6.282;2023-07-20T04:33:58;5.97;;;3.65;;
51824;SDS011;37879;52.986;6.282;2023-07-20T04:36:24;5.50;;;3.17;;
51824;SDS011;37879;52.986;6.282;2023-07-20T04:38:50;4.40;;;3.05;;
51824;SDS011;37879;52.986;6.282;2023-07-20T04:41:16;4.72;;;2.90;;
51824;SDS011;37879;52.986;6.282;2023-07-20T04:43:42;5.70;;;3.80;;
51824;SDS011;37879;52.986;6.282;2023-07-20T04:46:09;3.80;;;2.85;;
51824;SDS011;37879;52.986;6.282;2023-07-20T04:48:35;4.05;;;3.08;;
51824;SDS011;37879;52.986;6.282;2023-07-20T04:51:01;4.28;;;3.10;;
51824;SDS011;37879;52.986;6.282;2023-07-20T04:53:27;4.55;;;3.25;;
51824;SDS011;37879;52.986;6.282;2023-07-20T04:55:53;4.05;;;3.03;;
51824;SDS011;37879;52.986;6.282;2023-07-20T04:58:20;4.28;;;3.60;;
51824;SDS011;37879;52.986;6.282;2023-07-20T05:00:46;4.43;;;3.60;;
51824;SDS011;37879;52.986;6.282;2023-07-20T05:03:12;3.33;;;2.70;;
51824;SDS011;37879;52.986;6.282;2023-07-20T05:05:38;3.67;;;3.20;;
51824;SDS011;37879;52.986;6.282;2023-07-20T05:08:04;4.63;;;2.80;;
51824;SDS011;37879;52.986;6.282;2023-07-20T05:10:30;5.05;;;3.00;;
51824;SDS011;37879;52.986;6.282;2023-07-20T05:12:57;3.58;;;3.17;;
51824;SDS011;37879;52.986;6.282;2023-07-20T05:15:23;4.00;;;3.17;;
51824;SDS011;37879;52.986;6.282;2023-07-20T05:17:49;3.03;;;2.53;;
51824;SDS011;37879;52.986;6.282;2023-07-20T05:20:15;3.72;;;2.35;;
51824;SDS011;37879;52.986;6.282;2023-07-20T05:22:42;3.53;;;2.88;;
51824;SDS011;37879;52.986;6.282;2023-07-20T05:25:08;5.05;;;2.38;;
51824;SDS011;37879;52.986;6.282;2023-07-20T05:27:36;5.15;;;2.40;;
51824;SDS011;37879;52.986;6.282;2023-07-20T05:30:02;4.70;;;2.47;;
51824;SDS011;37879;52.986;6.282;2023-07-20T05:32:28;3.70;;;2.00;;
51824;SDS011;37879;52.986;6.282;2023-07-20T05:34:54;3.65;;;2.30;;
51824;SDS011;37879;52.986;6.282;2023-07-20T05:37:20;2.70;;;1.98;;
51824;SDS011;37879;52.986;6.282;2023-07-20T05:39:47;3.05;;;2.15;;
51824;SDS011;37879;52.986;6.282;2023-07-20T05:42:13;6.55;;;2.33;;
51824;SDS011;37879;52.986;6.282;2023-07-20T05:44:39;3.40;;;2.53;;
51824;SDS011;37879;52.986;6.282;2023-07-20T05:47:05;2.90;;;2.35;;
51824;SDS011;37879;52.986;6.282;2023-07-20T05:49:31;2.80;;;2.10;;
51824;SDS011;37879;52.986;6.282;2023-07-20T05:51:57;3.35;;;2.60;;
51824;SDS011;37879;52.986;6.282;2023-07-20T05:54:24;2.40;;;2.00;;
51824;SDS011;37879;52.986;6.282;2023-07-20T05:56:50;2.67;;;2.15;;
51824;SDS011;37879;52.986;6.282;2023-07-20T05:59:16;4.13;;;2.47;;
51824;SDS011;37879;52.986;6.282;2023-07-20T06:01:45;2.55;;;2.13;;
51824;SDS011;37879;52.986;6.282;2023-07-20T06:04:15;2.47;;;1.90;;
51824;SDS011;37879;52.986;6.282;2023-07-20T06:06:41;3.92;;;1.98;;
51824;SDS011;37879;52.986;6.282;2023-07-20T06:09:07;4.20;;;2.58;;
51824;SDS011;37879;52.986;6.282;2023-07-20T06:11:37;4.15;;;2.78;;
51824;SDS011;37879;52.986;6.282;2023-07-20T06:14:03;5.13;;;2.50;;
51824;SDS011;37879;52.986;6.282;2023-07-20T06:16:29;3.95;;;2.58;;
51824;SDS011;37879;52.986;6.282;2023-07-20T06:18:55;3.58;;;2.22;;
51824;SDS011;37879;52.986;6.282;2023-07-20T06:21:22;2.72;;;1.40;;
51824;SDS011;37879;52.986;6.282;2023-07-20T06:23:48;4.03;;;2.03;;
51824;SDS011;37879;52.986;6.282;2023-07-20T06:26:14;3.53;;;1.73;;
51824;SDS011;37879;52.986;6.282;2023-07-20T06:28:40;2.65;;;1.92;;
51824;SDS011;37879;52.986;6.282;2023-07-20T06:31:07;3.50;;;2.38;;
51824;SDS011;37879;52.986;6.282;2023-07-20T06:33:33;3.33;;;2.55;;
51824;SDS011;37879;52.986;6.282;2023-07-20T06:35:59;3.72;;;2.10;;
51824;SDS011;37879;52.986;6.282;2023-07-20T06:38:25;2.92;;;1.70;;
51824;SDS011;37879;52.986;6.282;2023-07-20T06:40:52;4.20;;;1.83;;
51824;SDS011;37879;52.986;6.282;2023-07-20T06:43:18;3.50;;;1.50;;
51824;SDS011;37879;52.986;6.282;2023-07-20T06:45:44;2.65;;;1.60;;
51824;SDS011;37879;52.986;6.282;2023-07-20T06:48:10;2.28;;;1.27;;
51824;SDS011;37879;52.986;6.282;2023-07-20T06:50:37;4.47;;;1.58;;
51824;SDS011;37879;52.986;6.282;2023-07-20T06:53:03;2.10;;;1.35;;
51824;SDS011;37879;52.986;6.282;2023-07-20T06:55:29;1.65;;;1.20;;
51824;SDS011;37879;52.986;6.282;2023-07-20T06:57:55;2.92;;;1.30;;
51824;SDS011;37879;52.986;6.282;2023-07-20T07:00:21;3.63;;;1.10;;
51824;SDS011;37879;52.986;6.282;2023-07-20T07:02:47;3.95;;;1.38;;
51824;SDS011;37879;52.986;6.282;2023-07-20T07:05:13;2.90;;;1.00;;
51824;SDS011;37879;52.986;6.282;2023-07-20T07:07:40;2.47;;;0.90;;
51824;SDS011;37879;52.986;6.282;2023-07-20T07:10:07;2.75;;;1.00;;
51824;SDS011;37879;52.986;6.282;2023-07-20T07:12:33;3.72;;;0.93;;
51824;SDS011;37879;52.986;6.282;2023-07-20T07:15:00;3.20;;;1.13;;
51824;SDS011;37879;52.986;6.282;2023-07-20T07:17:27;3.30;;;0.90;;
51824;SDS011;37879;52.986;6.282;2023-07-20T07:19:53;3.28;;;1.00;;
51824;SDS011;37879;52.986;6.282;2023-07-20T07:22:20;2.05;;;1.00;;
51824;SDS011;37879;52.986;6.282;2023-07-20T07:24:49;2.17;;;0.60;;
51824;SDS011;37879;52.986;6.282;2023-07-20T07:27:15;2.75;;;1.00;;
51824;SDS011;37879;52.986;6.282;2023-07-20T07:29:42;1.38;;;0.82;;
51824;SDS011;37879;52.986;6.282;2023-07-20T07:32:11;2.60;;;0.90;;
51824;SDS011;37879;52.986;6.282;2023-07-20T07:34:38;2.17;;;0.73;;
51824;SDS011;37879;52.986;6.282;2023-07-20T07:37:04;1.77;;;0.77;;
51824;SDS011;37879;52.986;6.282;2023-07-20T07:39:30;2.60;;;1.10;;
51824;SDS011;37879;52.986;6.282;2023-07-20T07:41:56;2.42;;;0.63;;
51824;SDS011;37879;52.986;6.282;2023-07-20T07:44:23;2.72;;;0.70;;
51824;SDS011;37879;52.986;6.282;2023-07-20T07:46:49;1.80;;;0.73;;
51824;SDS011;37879;52.986;6.282;2023-07-20T07:49:16;2.75;;;1.17;;
51824;SDS011;37879;52.986;6.282;2023-07-20T07:51:43;2.33;;;0.65;;
51824;SDS011;37879;52.986;6.282;2023-07-20T07:54:09;3.63;;;0.80;;
51824;SDS011;37879;52.986;6.282;2023-07-20T07:56:36;2.58;;;0.93;;
51824;SDS011;37879;52.986;6.282;2023-07-20T07:59:02;2.17;;;0.60;;
51824;SDS011;37879;52.986;6.282;2023-07-20T08:01:28;2.35;;;0.60;;
51824;SDS011;37879;52.986;6.282;2023-07-20T08:03:55;2.47;;;0.88;;
51824;SDS011;37879;52.986;6.282;2023-07-20T08:06:21;2.05;;;0.70;;
51824;SDS011;37879;52.986;6.282;2023-07-20T08:08:49;4.28;;;0.80;;
51824;SDS011;37879;52.986;6.282;2023-07-20T08:11:15;2.00;;;0.73;;
51824;SDS011;37879;52.986;6.282;2023-07-20T08:13:43;2.45;;;1.00;;
51824;SDS011;37879;52.986;6.282;2023-07-20T08:16:09;2.28;;;1.00;;
51824;SDS011;37879;52.986;6.282;2023-07-20T08:18:35;2.90;;;0.60;;
51824;SDS011;37879;52.986;6.282;2023-07-20T08:21:01;3.20;;;0.60;;
51824;SDS011;37879;52.986;6.282;2023-07-20T08:23:28;2.47;;;1.23;;
51824;SDS011;37879;52.986;6.282;2023-07-20T08:25:54;2.13;;;0.60;;
51824;SDS011;37879;52.986;6.282;2023-07-20T08:28:20;2.55;;;0.80;;
51824;SDS011;37879;52.986;6.282;2023-07-20T08:30:47;8.98;;;1.65;;
51824;SDS011;37879;52.986;6.282;2023-07-20T08:33:14;3.03;;;0.88;;
51824;SDS011;37879;52.986;6.282;2023-07-20T08:35:40;1.83;;;0.60;;
51824;SDS011;37879;52.986;6.282;2023-07-20T08:38:07;4.53;;;0.80;;
51824;SDS011;37879;52.986;6.282;2023-07-20T08:40:33;2.00;;;0.77;;
51824;SDS011;37879;52.986;6.282;2023-07-20T08:43:00;3.75;;;1.45;;
51824;SDS011;37879;52.986;6.282;2023-07-20T08:45:26;2.67;;;0.98;;
51824;SDS011;37879;52.986;6.282;2023-07-20T08:47:55;2.63;;;1.25;;
51824;SDS011;37879;52.986;6.282;2023-07-20T08:50:22;1.75;;;0.90;;
51824;SDS011;37879;52.986;6.282;2023-07-20T08:52:49;2.67;;;1.13;;
51824;SDS011;37879;52.986;6.282;2023-07-20T08:55:19;2.65;;;1.45;;
51824;SDS011;37879;52.986;6.282;2023-07-20T08:57:47;3.03;;;1.40;;
51824;SDS011;37879;52.986;6.282;2023-07-20T09:00:14;3.08;;;1.55;;
51824;SDS011;37879;52.986;6.282;2023-07-20T09:02:40;2.55;;;1.42;;
51824;SDS011;37879;52.986;6.282;2023-07-20T09:05:08;4.38;;;1.80;;
51824;SDS011;37879;52.986;6.282;2023-07-20T09:07:38;2.65;;;1.20;;
51824;SDS011;37879;52.986;6.282;2023-07-20T09:10:05;1.85;;;1.08;;
51824;SDS011;37879;52.986;6.282;2023-07-20T09:12:38;2.17;;;0.98;;
51824;SDS011;37879;52.986;6.282;2023-07-20T09:15:05;2.25;;;1.10;;
51824;SDS011;37879;52.986;6.282;2023-07-20T09:17:31;1.83;;;1.17;;
51824;SDS011;37879;52.986;6.282;2023-07-20T09:19:57;11.90;;;2.10;;
51824;SDS011;37879;52.986;6.282;2023-07-20T09:22:30;3.95;;;1.10;;
51824;SDS011;37879;52.986;6.282;2023-07-20T09:24:56;2.20;;;1.00;;
51824;SDS011;37879;52.986;6.282;2023-07-20T09:27:22;2.90;;;1.10;;
51824;SDS011;37879;52.986;6.282;2023-07-20T09:29:49;2.40;;;1.38;;
51824;SDS011;37879;52.986;6.282;2023-07-20T09:32:19;4.20;;;1.60;;
51824;SDS011;37879;52.986;6.282;2023-07-20T09:34:49;2.05;;;1.13;;
51824;SDS011;37879;52.986;6.282;2023-07-20T09:37:22;1.92;;;1.00;;
51824;SDS011;37879;52.986;6.282;2023-07-20T09:39:51;2.30;;;1.15;;
51824;SDS011;37879;52.986;6.282;2023-07-20T09:42:18;2.63;;;1.40;;
51824;SDS011;37879;52.986;6.282;2023-07-20T09:44:44;2.08;;;1.20;;
51824;SDS011;37879;52.986;6.282;2023-07-20T09:47:10;2.72;;;1.30;;
51824;SDS011;37879;52.986;6.282;2023-07-20T09:49:40;1.90;;;1.10;;
51824;SDS011;37879;52.986;6.282;2023-07-20T09:52:06;2.35;;;1.27;;
51824;SDS011;37879;52.986;6.282;2023-07-20T09:54:33;3.10;;;1.50;;
51824;SDS011;37879;52.986;6.282;2023-07-20T09:56:59;2.10;;;1.05;;
51824;SDS011;37879;52.986;6.282;2023-07-20T09:59:26;3.72;;;1.83;;
51824;SDS011;37879;52.986;6.282;2023-07-20T10:01:53;2.80;;;1.20;;
51824;SDS011;37879;52.986;6.282;2023-07-20T10:04:19;3.80;;;1.42;;
51824;SDS011;37879;52.986;6.282;2023-07-20T10:06:46;3.22;;;1.40;;
51824;SDS011;37879;52.986;6.282;2023-07-20T10:09:13;4.68;;;1.13;;
51824;SDS011;37879;52.986;6.282;2023-07-20T10:11:43;4.65;;;1.77;;
51824;SDS011;37879;52.986;6.282;2023-07-20T10:14:09;4.28;;;1.65;;
51824;SDS011;37879;52.986;6.282;2023-07-20T10:16:39;3.38;;;1.83;;
51824;SDS011;37879;52.986;6.282;2023-07-20T10:19:07;2.45;;;0.95;;
51824;SDS011;37879;52.986;6.282;2023-07-20T10:21:39;2.72;;;1.70;;
51824;SDS011;37879;52.986;6.282;2023-07-20T10:24:06;3.85;;;1.70;;
51824;SDS011;37879;52.986;6.282;2023-07-20T10:26:32;3.97;;;1.88;;
51824;SDS011;37879;52.986;6.282;2023-07-20T10:28:58;3.88;;;1.60;;
51824;SDS011;37879;52.986;6.282;2023-07-20T10:31:25;3.10;;;1.58;;
51824;SDS011;37879;52.986;6.282;2023-07-20T10:33:54;3.92;;;1.50;;
51824;SDS011;37879;52.986;6.282;2023-07-20T10:36:26;4.57;;;1.73;;
51824;SDS011;37879;52.986;6.282;2023-07-20T10:38:53;4.05;;;1.67;;
51824;SDS011;37879;52.986;6.282;2023-07-20T10:41:21;4.97;;;1.80;;
51824;SDS011;37879;52.986;6.282;2023-07-20T10:43:49;2.33;;;1.08;;
51824;SDS011;37879;52.986;6.282;2023-07-20T10:47:01;3.20;;;1.63;;
51824;SDS011;37879;52.986;6.282;2023-07-20T10:49:03;3.40;;;2.00;;
51824;SDS011;37879;52.986;6.282;2023-07-20T10:51:29;4.13;;;1.80;;
51824;SDS011;37879;52.986;6.282;2023-07-20T10:53:59;3.30;;;1.83;;
51824;SDS011;37879;52.986;6.282;2023-07-20T10:56:27;3.83;;;1.50;;
51824;SDS011;37879;52.986;6.282;2023-07-20T10:59:00;5.50;;;1.60;;
51824;SDS011;37879;52.986;6.282;2023-07-20T11:01:27;2.95;;;1.55;;
51824;SDS011;37879;52.986;6.282;2023-07-20T11:03:56;2.83;;;1.42;;
51824;SDS011;37879;52.986;6.282;2023-07-20T11:08:56;3.97;;;1.63;;
51824;SDS011;37879;52.986;6.282;2023-07-20T11:13:55;3.25;;;1.60;;
51824;SDS011;37879;52.986;6.282;2023-07-20T11:19:01;3.78;;;1.63;;
51824;SDS011;37879;52.986;6.282;2023-07-20T11:21:27;2.30;;;1.08;;
51824;SDS011;37879;52.986;6.282;2023-07-20T11:23:53;3.97;;;1.70;;
51824;SDS011;37879;52.986;6.282;2023-07-20T11:26:19;3.10;;;1.40;;
51824;SDS011;37879;52.986;6.282;2023-07-20T11:28:49;4.45;;;1.45;;
51824;SDS011;37879;52.986;6.282;2023-07-20T11:31:16;3.33;;;1.77;;
51824;SDS011;37879;52.986;6.282;2023-07-20T11:33:43;4.60;;;2.03;;
51824;SDS011;37879;52.986;6.282;2023-07-20T11:36:09;4.38;;;1.70;;
51824;SDS011;37879;52.986;6.282;2023-07-20T11:38:35;4.25;;;1.52;;
51824;SDS011;37879;52.986;6.282;2023-07-20T11:41:04;3.08;;;1.30;;
51824;SDS011;37879;52.986;6.282;2023-07-20T11:43:30;2.63;;;1.10;;
51824;SDS011;37879;52.986;6.282;2023-07-20T11:45:56;3.58;;;1.40;;
51824;SDS011;37879;52.986;6.282;2023-07-20T11:48:22;3.47;;;1.55;;
51824;SDS011;37879;52.986;6.282;2023-07-20T11:50:49;4.80;;;1.75;;
51824;SDS011;37879;52.986;6.282;2023-07-20T11:53:15;3.25;;;1.33;;
51824;SDS011;37879;52.986;6.282;2023-07-20T11:55:41;3.85;;;1.50;;
51824;SDS011;37879;52.986;6.282;2023-07-20T11:58:08;3.97;;;1.63;;
51824;SDS011;37879;52.986;6.282;2023-07-20T12:00:36;2.42;;;1.10;;
51824;SDS011;37879;52.986;6.282;2023-07-20T12:03:04;2.95;;;1.42;;
51824;SDS011;37879;52.986;6.282;2023-07-20T12:05:31;3.08;;;1.30;;
51824;SDS011;37879;52.986;6.282;2023-07-20T12:07:58;3.05;;;1.08;;
51824;SDS011;37879;52.986;6.282;2023-07-20T12:10:25;3.15;;;1.50;;
51824;SDS011;37879;52.986;6.282;2023-07-20T12:12:51;2.78;;;1.42;;
51824;SDS011;37879;52.986;6.282;2023-07-20T12:15:25;3.42;;;1.25;;
51824;SDS011;37879;52.986;6.282;2023-07-20T12:17:52;3.83;;;2.08;;
51824;SDS011;37879;52.986;6.282;2023-07-20T12:23:14;3.20;;;1.40;;
51824;SDS011;37879;52.986;6.282;2023-07-20T12:25:42;4.03;;;1.20;;
51824;SDS011;37879;52.986;6.282;2023-07-20T12:28:17;2.58;;;1.45;;
51824;SDS011;37879;52.986;6.282;2023-07-20T12:30:43;1.98;;;1.00;;
51824;SDS011;37879;52.986;6.282;2023-07-20T12:33:10;4.28;;;1.30;;
51824;SDS011;37879;52.986;6.282;2023-07-20T12:35:37;5.40;;;1.63;;
51824;SDS011;37879;52.986;6.282;2023-07-20T12:38:03;3.85;;;1.65;;
51824;SDS011;37879;52.986;6.282;2023-07-20T12:40:30;4.43;;;1.52;;
51824;SDS011;37879;52.986;6.282;2023-07-20T12:42:56;2.75;;;1.75;;
51824;SDS011;37879;52.986;6.282;2023-07-20T12:45:23;1.67;;;1.15;;
51824;SDS011;37879;52.986;6.282;2023-07-20T12:47:49;5.40;;;1.15;;
51824;SDS011;37879;52.986;6.282;2023-07-20T12:50:15;2.22;;;1.27;;
51824;SDS011;37879;52.986;6.282;2023-07-20T12:52:41;4.03;;;1.58;;
51824;SDS011;37879;52.986;6.282;2023-07-20T12:55:08;2.72;;;1.40;;
51824;SDS011;37879;52.986;6.282;2023-07-20T12:57:35;3.75;;;1.58;;
51824;SDS011;37879;52.986;6.282;2023-07-20T13:00:02;2.63;;;1.45;;
51824;SDS011;37879;52.986;6.282;2023-07-20T13:02:29;5.10;;;1.33;;
51824;SDS011;37879;52.986;6.282;2023-07-20T13:04:56;2.28;;;1.50;;
51824;SDS011;37879;52.986;6.282;2023-07-20T13:07:32;4.38;;;2.00;;
51824;SDS011;37879;52.986;6.282;2023-07-20T13:09:59;2.38;;;1.20;;
51824;SDS011;37879;52.986;6.282;2023-07-20T13:12:29;3.67;;;1.13;;
51824;SDS011;37879;52.986;6.282;2023-07-20T13:14:55;2.25;;;1.08;;
51824;SDS011;37879;52.986;6.282;2023-07-20T13:17:22;3.22;;;1.38;;
51824;SDS011;37879;52.986;6.282;2023-07-20T13:19:48;1.90;;;1.00;;
51824;SDS011;37879;52.986;6.282;2023-07-20T13:22:14;2.67;;;1.08;;
51824;SDS011;37879;52.986;6.282;2023-07-20T13:24:41;3.35;;;0.98;;
51824;SDS011;37879;52.986;6.282;2023-07-20T13:27:07;3.38;;;1.45;;
51824;SDS011;37879;52.986;6.282;2023-07-20T13:29:33;2.30;;;0.95;;
51824;SDS011;37879;52.986;6.282;2023-07-20T13:31:59;2.83;;;1.05;;
51824;SDS011;37879;52.986;6.282;2023-07-20T13:34:25;1.80;;;1.00;;
51824;SDS011;37879;52.986;6.282;2023-07-20T13:36:51;1.63;;;1.10;;
51824;SDS011;37879;52.986;6.282;2023-07-20T13:39:18;3.20;;;1.15;;
51824;SDS011;37879;52.986;6.282;2023-07-20T13:41:44;4.05;;;1.35;;
51824;SDS011;37879;52.986;6.282;2023-07-20T13:44:10;1.73;;;0.95;;
51824;SDS011;37879;52.986;6.282;2023-07-20T13:46:36;3.95;;;1.25;;
51824;SDS011;37879;52.986;6.282;2023-07-20T13:49:02;3.78;;;1.05;;
51824;SDS011;37879;52.986;6.282;2023-07-20T13:51:28;4.80;;;1.30;;
51824;SDS011;37879;52.986;6.282;2023-07-20T13:53:54;1.75;;;0.90;;
51824;SDS011;37879;52.986;6.282;2023-07-20T13:56:21;1.58;;;0.70;;
51824;SDS011;37879;52.986;6.282;2023-07-20T13:58:47;1.83;;;0.90;;
51824;SDS011;37879;52.986;6.282;2023-07-20T14:01:13;2.08;;;1.02;;
51824;SDS011;37879;52.986;6.282;2023-07-20T14:03:39;2.65;;;1.15;;
51824;SDS011;37879;52.986;6.282;2023-07-20T14:06:05;4.32;;;1.35;;
51824;SDS011;37879;52.986;6.282;2023-07-20T14:08:31;2.85;;;1.00;;
51824;SDS011;37879;52.986;6.282;2023-07-20T14:10:57;2.20;;;0.88;;
51824;SDS011;37879;52.986;6.282;2023-07-20T14:13:23;1.63;;;0.80;;
51824;SDS011;37879;52.986;6.282;2023-07-20T14:15:49;2.08;;;0.95;;
51824;SDS011;37879;52.986;6.282;2023-07-20T14:18:15;2.95;;;1.13;;
51824;SDS011;37879;52.986;6.282;2023-07-20T14:20:41;2.88;;;1.13;;
51824;SDS011;37879;52.986;6.282;2023-07-20T14:23:09;2.00;;;0.98;;
51824;SDS011;37879;52.986;6.282;2023-07-20T14:25:35;2.03;;;0.95;;
51824;SDS011;37879;52.986;6.282;2023-07-20T14:28:01;2.33;;;0.90;;
51824;SDS011;37879;52.986;6.282;2023-07-20T14:30:27;1.33;;;0.80;;
51824;SDS011;37879;52.986;6.282;2023-07-20T14:32:53;2.47;;;0.80;;
51824;SDS011;37879;52.986;6.282;2023-07-20T14:35:19;2.33;;;1.08;;
51824;SDS011;37879;52.986;6.282;2023-07-20T14:37:45;3.95;;;0.98;;
51824;SDS011;37879;52.986;6.282;2023-07-20T14:40:12;1.80;;;1.00;;
51824;SDS011;37879;52.986;6.282;2023-07-20T14:42:38;4.47;;;1.23;;
51824;SDS011;37879;52.986;6.282;2023-07-20T14:45:05;2.03;;;1.10;;
51824;SDS011;37879;52.986;6.282;2023-07-20T14:47:31;1.65;;;0.85;;
51824;SDS011;37879;52.986;6.282;2023-07-20T14:50:00;2.13;;;0.88;;
51824;SDS011;37879;52.986;6.282;2023-07-20T14:52:27;2.67;;;1.27;;
51824;SDS011;37879;52.986;6.282;2023-07-20T14:54:53;2.67;;;1.05;;
51824;SDS011;37879;52.986;6.282;2023-07-20T14:57:20;1.20;;;0.63;;
51824;SDS011;37879;52.986;6.282;2023-07-20T14:59:48;1.98;;;1.10;;
51824;SDS011;37879;52.986;6.282;2023-07-20T15:02:14;1.73;;;0.75;;
51824;SDS011;37879;52.986;6.282;2023-07-20T15:04:50;1.70;;;0.70;;
51824;SDS011;37879;52.986;6.282;2023-07-20T15:07:17;3.97;;;0.90;;
51824;SDS011;37879;52.986;6.282;2023-07-20T15:09:44;0.95;;;0.68;;